createdAt,value
2023-05-15T00:00:50.986Z,8.20
2023-05-15T00:03:18.268Z,8.20
2023-05-15T00:05:45.038Z,8.20
2023-05-15T00:08:11.650Z,8.20
2023-05-15T00:10:39.401Z,8.20
2023-05-15T00:13:07.542Z,8.10
2023-05-15T00:15:34.153Z,8.10
2023-05-15T00:18:00.799Z,8.10
2023-05-15T00:20:27.449Z,8.10
2023-05-15T00:22:54.061Z,8.10
2023-05-15T00:25:20.662Z,8.00
2023-05-15T00:27:47.283Z,8.00
2023-05-15T00:30:14.558Z,8.00
2023-05-15T00:32:41.227Z,8.10
2023-05-15T00:35:07.935Z,8.10
2023-05-15T00:37:34.548Z,8.10
2023-05-15T00:40:01.256Z,8.10
2023-05-15T00:42:27.883Z,8.20
2023-05-15T00:44:54.491Z,8.10
2023-05-15T00:47:21.492Z,8.20
2023-05-15T00:49:49.208Z,8.20
2023-05-15T00:52:15.809Z,8.20
2023-05-15T00:54:42.448Z,8.30
2023-05-15T00:57:09.329Z,8.30
2023-05-15T00:59:35.936Z,8.20
2023-05-15T01:02:02.547Z,8.20
2023-05-15T01:04:29.172Z,8.10
2023-05-15T01:06:56.749Z,8.10
2023-05-15T01:09:24.177Z,8.10
2023-05-15T01:11:51.064Z,8.00
2023-05-15T01:14:17.996Z,7.90
2023-05-15T01:16:44.585Z,7.80
2023-05-15T01:19:11.359Z,7.80
2023-05-15T01:21:37.930Z,7.70
2023-05-15T01:24:29.240Z,7.70
2023-05-15T01:27:19.029Z,7.70
2023-05-15T01:29:57.556Z,7.60
2023-05-15T01:32:45.164Z,7.60
2023-05-15T01:35:33.050Z,7.60
2023-05-15T01:38:04.087Z,7.60
2023-05-15T01:40:30.703Z,7.50
2023-05-15T01:43:07.618Z,7.50
2023-05-15T01:45:34.215Z,7.50
2023-05-15T01:48:00.958Z,7.50
2023-05-15T01:50:27.627Z,7.50
2023-05-15T01:52:54.729Z,7.50
2023-05-15T01:55:21.593Z,7.50
2023-05-15T01:57:49.099Z,7.50
2023-05-15T02:00:15.834Z,7.40
2023-05-15T02:02:42.659Z,7.40
2023-05-15T02:05:09.751Z,7.40
2023-05-15T02:07:36.401Z,7.30
2023-05-15T02:10:03.332Z,7.30
2023-05-15T02:12:30.627Z,7.20
2023-05-15T02:14:57.238Z,7.30
2023-05-15T02:17:23.963Z,7.30
2023-05-15T02:19:50.839Z,7.30
2023-05-15T02:22:17.450Z,7.40
2023-05-15T02:24:44.198Z,7.40
2023-05-15T02:27:26.715Z,7.40
2023-05-15T02:30:22.512Z,7.40
2023-05-15T02:32:56.533Z,7.40
2023-05-15T02:35:46.705Z,7.40
2023-05-15T02:38:16.928Z,7.40
2023-05-15T02:40:44.415Z,7.40
2023-05-15T02:43:11.130Z,7.40
2023-05-15T02:45:37.754Z,7.40
2023-05-15T02:48:04.690Z,7.40
2023-05-15T02:50:31.336Z,7.30
2023-05-15T02:53:04.920Z,7.40
2023-05-15T02:55:31.740Z,7.40
2023-05-15T02:57:58.353Z,7.40
2023-05-15T03:00:24.966Z,7.50
2023-05-15T03:02:51.616Z,7.40
2023-05-15T03:05:18.320Z,7.50
2023-05-15T03:07:44.943Z,7.50
2023-05-15T03:10:11.567Z,7.60
2023-05-15T03:12:38.530Z,7.60
2023-05-15T03:15:08.381Z,7.60
2023-05-15T03:17:35.059Z,7.60
2023-05-15T03:20:01.732Z,7.50
2023-05-15T03:22:28.315Z,7.60
2023-05-15T03:24:54.938Z,7.60
2023-05-15T03:27:21.524Z,7.70
2023-05-15T03:29:50.811Z,7.70
2023-05-15T03:32:17.748Z,7.70
2023-05-15T03:34:44.660Z,7.60
2023-05-15T03:37:11.302Z,7.70
2023-05-15T03:39:37.926Z,7.80
2023-05-15T03:42:04.835Z,7.80
2023-05-15T03:44:31.435Z,7.90
2023-05-15T03:46:58.094Z,8.00
2023-05-15T03:49:24.684Z,8.00
2023-05-15T03:51:51.290Z,8.20
2023-05-15T03:54:17.902Z,8.30
2023-05-15T03:56:44.615Z,8.40
2023-05-15T03:59:11.210Z,8.40
2023-05-15T04:01:47.565Z,8.60
2023-05-15T04:04:22.255Z,8.70
2023-05-15T04:06:49.709Z,8.70
2023-05-15T04:09:16.308Z,8.70
2023-05-15T04:11:42.918Z,8.80
2023-05-15T04:14:09.793Z,8.80
2023-05-15T04:16:36.437Z,8.80
2023-05-15T04:19:03.101Z,8.90
2023-05-15T04:21:29.756Z,9.00
2023-05-15T04:23:56.840Z,9.30
2023-05-15T04:26:23.473Z,9.40
2023-05-15T04:31:29.658Z,9.50
2023-05-15T04:33:56.301Z,9.40
2023-05-15T04:36:22.943Z,9.40
2023-05-15T04:38:49.569Z,9.50
2023-05-15T04:41:16.171Z,9.50
2023-05-15T04:43:42.760Z,9.40
2023-05-15T04:46:09.416Z,9.40
2023-05-15T04:48:36.063Z,9.40
2023-05-15T04:51:02.690Z,9.40
2023-05-15T04:53:29.331Z,9.50
2023-05-15T04:55:56.214Z,9.70
2023-05-15T04:58:22.836Z,9.70
2023-05-15T05:00:49.454Z,9.80
2023-05-15T05:03:16.192Z,9.90
2023-05-15T05:05:42.876Z,9.90
2023-05-15T05:08:09.547Z,10.00
2023-05-15T05:10:36.192Z,10.20
2023-05-15T05:13:02.888Z,10.30
2023-05-15T05:15:29.670Z,10.40
2023-05-15T05:17:56.300Z,10.50
2023-05-15T05:20:22.996Z,10.60
2023-05-15T05:22:49.722Z,10.80
2023-05-15T05:25:16.361Z,11.10
2023-05-15T05:27:43.102Z,11.30
2023-05-15T05:30:10.324Z,11.60
2023-05-15T05:32:36.988Z,11.70
2023-05-15T05:35:04.030Z,11.90
2023-05-15T05:37:30.656Z,12.20
2023-05-15T05:39:57.311Z,12.70
2023-05-15T05:42:23.930Z,13.80
2023-05-15T05:44:50.591Z,14.70
2023-05-15T05:47:19.025Z,16.10
2023-05-15T05:49:48.069Z,16.60
2023-05-15T05:52:16.061Z,16.40
2023-05-15T05:54:43.027Z,16.00
2023-05-15T05:57:09.758Z,15.60
2023-05-15T05:59:37.218Z,15.50
2023-05-15T06:02:04.471Z,15.20
2023-05-15T06:04:32.988Z,15.20
2023-05-15T06:06:59.766Z,15.50
2023-05-15T06:09:26.383Z,16.80
2023-05-15T06:11:52.990Z,17.90
2023-05-15T06:14:20.686Z,18.10
2023-05-15T06:16:47.981Z,18.70
2023-05-15T06:19:14.944Z,19.60
2023-05-15T06:21:41.607Z,20.90
2023-05-15T06:24:08.386Z,22.00
2023-05-15T06:26:35.018Z,22.40
2023-05-15T06:29:01.617Z,22.70
2023-05-15T06:31:28.306Z,22.80
2023-05-15T06:33:54.961Z,23.00
2023-05-15T06:36:21.628Z,23.50
2023-05-15T06:38:48.222Z,23.60
2023-05-15T06:41:14.859Z,22.60
2023-05-15T06:43:41.446Z,22.10
2023-05-15T06:46:08.185Z,22.10
2023-05-15T06:48:35.667Z,21.80
2023-05-15T06:51:02.319Z,22.30
2023-05-15T06:53:29.727Z,22.40
2023-05-15T06:55:57.736Z,21.80
2023-05-15T06:58:24.926Z,20.70
2023-05-15T07:00:52.926Z,19.90
2023-05-15T07:03:20.847Z,19.60
2023-05-15T07:05:47.455Z,19.20
2023-05-15T07:08:14.070Z,19.00
2023-05-15T07:10:40.706Z,19.00
2023-05-15T07:13:07.310Z,19.00
2023-05-15T07:15:33.901Z,18.80
2023-05-15T07:18:00.598Z,18.90
2023-05-15T07:20:30.184Z,18.80
2023-05-15T07:22:57.711Z,18.80
2023-05-15T07:25:25.432Z,19.10
2023-05-15T07:27:52.418Z,19.40
2023-05-15T07:30:19.111Z,20.30
2023-05-15T07:32:45.808Z,20.60
2023-05-15T07:35:12.514Z,20.50
2023-05-15T07:37:39.203Z,20.90
2023-05-15T07:40:06.697Z,21.40
2023-05-15T07:42:33.331Z,21.80
2023-05-15T07:44:59.987Z,21.70
2023-05-15T07:47:26.645Z,21.70
2023-05-15T07:49:53.307Z,22.40
2023-05-15T07:52:20.319Z,23.10
2023-05-15T07:54:46.951Z,23.30
2023-05-15T07:57:14.078Z,23.00
2023-05-15T07:59:40.689Z,22.70
2023-05-15T08:02:07.491Z,22.40
2023-05-15T08:04:34.316Z,22.00
2023-05-15T08:07:01.055Z,21.50
2023-05-15T08:09:27.679Z,21.10
2023-05-15T08:11:58.127Z,20.80
2023-05-15T08:14:24.794Z,20.70
2023-05-15T08:16:51.612Z,20.80
2023-05-15T08:19:19.263Z,20.70
2023-05-15T08:21:45.955Z,21.10
2023-05-15T08:24:12.579Z,21.30
2023-05-15T08:26:39.232Z,21.50
2023-05-15T08:29:05.892Z,21.30
2023-05-15T08:31:32.535Z,21.50
2023-05-15T08:33:59.195Z,21.60
2023-05-15T08:36:25.923Z,21.50
2023-05-15T08:38:52.556Z,21.70
2023-05-15T08:41:38.863Z,21.90
2023-05-15T08:44:06.891Z,21.90
2023-05-15T08:46:34.484Z,22.10
2023-05-15T08:49:07.050Z,21.90
2023-05-15T08:51:33.681Z,21.50
2023-05-15T08:54:00.303Z,20.80
2023-05-15T08:56:26.922Z,20.90
2023-05-15T08:58:53.548Z,21.10
2023-05-15T09:01:20.202Z,21.40
2023-05-15T09:03:47.120Z,21.50
2023-05-15T09:06:13.802Z,21.60
2023-05-15T09:08:40.420Z,21.60
2023-05-15T09:11:07.926Z,21.50
2023-05-15T09:13:34.586Z,21.30
2023-05-15T09:16:01.212Z,21.10
2023-05-15T09:18:27.869Z,21.50
2023-05-15T09:20:56.244Z,21.70
2023-05-15T09:23:25.845Z,21.60
2023-05-15T09:25:56.749Z,21.70
2023-05-15T09:28:31.582Z,21.80
2023-05-15T09:31:04.974Z,22.30
2023-05-15T09:33:39.305Z,22.50
2023-05-15T09:36:07.028Z,22.70
2023-05-15T09:38:34.396Z,22.90
2023-05-15T09:41:02.759Z,22.80
2023-05-15T09:43:30.424Z,22.60
2023-05-15T09:45:57.148Z,22.60
2023-05-15T09:48:23.911Z,22.60
2023-05-15T09:50:50.565Z,22.30
2023-05-15T09:53:21.364Z,22.10
2023-05-15T09:55:48.928Z,21.90
2023-05-15T09:58:18.741Z,21.80
2023-05-15T10:00:48.485Z,21.70
2023-05-15T10:03:20.315Z,21.80
2023-05-15T10:05:47.021Z,21.70
2023-05-15T10:08:15.547Z,21.70
2023-05-15T10:10:42.527Z,21.90
2023-05-15T10:13:09.909Z,22.10
2023-05-15T10:15:36.549Z,22.00
2023-05-15T10:18:04.190Z,21.90
2023-05-15T10:20:32.047Z,22.00
2023-05-15T10:22:59.146Z,22.40
2023-05-15T10:25:54.866Z,22.60
2023-05-15T10:28:21.484Z,22.80
2023-05-15T10:30:48.078Z,23.10
2023-05-15T10:33:14.834Z,23.30
2023-05-15T10:35:41.495Z,23.50
2023-05-15T10:38:08.162Z,23.70
2023-05-15T10:40:38.014Z,23.70
2023-05-15T10:43:04.907Z,24.00
2023-05-15T10:45:31.513Z,23.80
2023-05-15T10:47:58.155Z,23.50
2023-05-15T10:50:25.038Z,23.10
2023-05-15T10:52:54.549Z,22.50
2023-05-15T10:55:22.016Z,22.00
2023-05-15T10:57:48.710Z,21.60
2023-05-15T11:00:26.058Z,21.40
2023-05-15T11:02:53.975Z,21.00
2023-05-15T11:05:20.681Z,20.70
2023-05-15T11:08:15.269Z,20.20
2023-05-15T11:10:41.937Z,19.80
2023-05-15T11:13:08.550Z,19.30
2023-05-15T11:15:45.513Z,18.80
2023-05-15T11:18:12.169Z,18.10
2023-05-15T11:20:42.851Z,17.70
2023-05-15T11:23:09.542Z,17.40
2023-05-15T11:25:36.355Z,17.10
2023-05-15T11:28:04.323Z,17.00
2023-05-15T11:30:40.144Z,17.20
2023-05-15T11:33:12.670Z,17.30
2023-05-15T11:35:49.183Z,17.50
2023-05-15T11:38:24.528Z,17.70
2023-05-15T11:40:55.889Z,17.80
2023-05-15T11:43:25.604Z,18.00
2023-05-15T11:45:57.788Z,18.20
2023-05-15T11:48:25.655Z,18.20
2023-05-15T11:50:54.991Z,18.20
2023-05-15T11:53:23.048Z,18.30
2023-05-15T11:55:50.876Z,18.50
2023-05-15T11:58:18.167Z,18.60
2023-05-15T12:00:46.469Z,18.90
2023-05-15T12:03:16.012Z,19.10
2023-05-15T12:05:54.224Z,19.20
2023-05-15T12:08:25.504Z,19.50
2023-05-15T12:10:52.206Z,19.70
2023-05-15T12:13:18.905Z,19.90
2023-05-15T12:15:46.292Z,20.10
2023-05-15T12:18:13.651Z,20.30
2023-05-15T12:20:40.638Z,20.50
2023-05-15T12:23:07.844Z,20.70
2023-05-15T12:25:38.745Z,20.80
2023-05-15T12:28:05.499Z,21.00
2023-05-15T12:30:35.251Z,21.10
2023-05-15T12:33:08.684Z,21.00
2023-05-15T12:35:36.103Z,20.50
2023-05-15T12:38:06.029Z,20.10
2023-05-15T12:40:36.451Z,20.00
2023-05-15T12:43:06.844Z,20.00
2023-05-15T12:45:35.232Z,19.90
2023-05-15T12:48:02.221Z,19.90
2023-05-15T12:50:30.688Z,20.00
2023-05-15T12:52:57.856Z,20.10
2023-05-15T12:55:26.319Z,20.30
2023-05-15T12:57:53.524Z,20.50
2023-05-15T13:00:21.585Z,20.80
2023-05-15T13:02:53.388Z,21.10
2023-05-15T13:05:20.483Z,21.20
2023-05-15T13:07:47.095Z,21.50
2023-05-15T13:10:13.721Z,22.10
2023-05-15T13:12:45.173Z,22.40
2023-05-15T13:15:42.679Z,22.50
2023-05-15T13:18:14.002Z,22.40
2023-05-15T13:20:40.986Z,22.50
2023-05-15T13:23:07.909Z,23.00
2023-05-15T13:25:35.020Z,23.30
2023-05-15T13:28:03.559Z,22.70
2023-05-15T13:30:30.356Z,22.00
2023-05-15T13:32:57.016Z,21.60
2023-05-15T13:35:23.759Z,21.50
2023-05-15T13:37:50.441Z,21.30
2023-05-15T13:40:17.071Z,21.10
2023-05-15T13:42:44.153Z,21.00
2023-05-15T13:45:12.246Z,21.00
2023-05-15T13:47:41.856Z,21.00
2023-05-15T13:50:09.591Z,20.80
2023-05-15T13:52:36.186Z,21.00
2023-05-15T13:55:04.345Z,21.10
2023-05-15T13:57:31.486Z,21.30
2023-05-15T13:59:58.601Z,21.20
2023-05-15T14:02:26.614Z,20.90
2023-05-15T14:04:53.663Z,20.90
2023-05-15T14:07:23.871Z,20.90
2023-05-15T14:09:51.202Z,21.00
2023-05-15T14:12:17.949Z,20.80
2023-05-15T14:14:47.781Z,20.80
2023-05-15T14:17:15.037Z,20.70
2023-05-15T14:19:47.456Z,20.90
2023-05-15T14:22:14.107Z,20.90
2023-05-15T14:24:40.796Z,20.80
2023-05-15T14:27:07.498Z,20.40
2023-05-15T14:29:34.090Z,19.90
2023-05-15T14:32:00.981Z,19.50
2023-05-15T14:34:29.112Z,19.10
2023-05-15T14:36:55.738Z,18.70
2023-05-15T14:39:22.330Z,18.50
2023-05-15T14:41:49.391Z,18.30
2023-05-15T14:44:16.032Z,18.30
2023-05-15T14:46:42.817Z,18.30
2023-05-15T14:49:09.491Z,18.30
2023-05-15T14:51:36.096Z,18.20
2023-05-15T14:54:04.352Z,18.00
2023-05-15T14:56:31.443Z,18.00
2023-05-15T14:58:58.057Z,17.90
2023-05-15T15:01:24.695Z,17.80
2023-05-15T15:03:51.462Z,17.80
2023-05-15T15:06:18.122Z,17.60
2023-05-15T15:08:44.768Z,17.50
2023-05-15T15:11:11.579Z,17.50
2023-05-15T15:13:38.187Z,17.50
2023-05-15T15:16:04.912Z,17.40
2023-05-15T15:18:31.766Z,17.30
2023-05-15T15:20:58.508Z,17.20
2023-05-15T15:23:25.211Z,17.20
2023-05-15T15:25:51.859Z,17.20
2023-05-15T15:28:18.472Z,17.20
2023-05-15T15:30:45.072Z,17.30
2023-05-15T15:33:11.703Z,17.30
2023-05-15T15:35:38.325Z,17.30
2023-05-15T15:38:05.393Z,17.30
2023-05-15T15:40:32.045Z,17.30
2023-05-15T15:42:58.661Z,17.20
2023-05-15T15:45:25.406Z,17.10
2023-05-15T15:47:52.076Z,17.10
2023-05-15T15:50:18.889Z,16.80
2023-05-15T15:52:45.533Z,16.60
2023-05-15T15:55:12.184Z,16.40
2023-05-15T15:57:38.858Z,16.40
2023-05-15T16:00:08.072Z,16.40
2023-05-15T16:02:34.711Z,16.30
2023-05-15T16:05:01.365Z,16.30
2023-05-15T16:07:28.096Z,16.20
2023-05-15T16:10:04.116Z,16.20
2023-05-15T16:12:38.936Z,16.20
2023-05-15T16:15:20.693Z,16.20
2023-05-15T16:17:50.549Z,16.20
2023-05-15T16:20:17.387Z,16.30
2023-05-15T16:22:44.327Z,16.40
2023-05-15T16:25:11.010Z,16.50
2023-05-15T16:27:37.646Z,16.50
2023-05-15T16:30:04.546Z,16.50
2023-05-15T16:32:31.749Z,16.60
2023-05-15T16:34:58.388Z,16.70
2023-05-15T16:37:24.992Z,16.70
2023-05-15T16:39:51.826Z,16.70
2023-05-15T16:42:18.449Z,16.70
2023-05-15T16:44:45.051Z,16.70
2023-05-15T16:47:11.719Z,16.60
2023-05-15T16:49:38.317Z,16.50
2023-05-15T16:52:05.117Z,16.40
2023-05-15T16:54:31.769Z,16.30
2023-05-15T16:56:58.418Z,16.20
2023-05-15T16:59:25.053Z,16.10
2023-05-15T17:01:51.711Z,16.10
2023-05-15T17:04:18.334Z,16.10
2023-05-15T17:06:44.947Z,16.00
2023-05-15T17:09:11.573Z,16.00
2023-05-15T17:11:38.175Z,16.00
2023-05-15T17:14:04.975Z,16.00
2023-05-15T17:16:31.648Z,16.00
2023-05-15T17:18:58.332Z,15.90
2023-05-15T17:21:24.976Z,15.90
2023-05-15T17:23:53.148Z,15.90
2023-05-15T17:26:19.774Z,15.80
2023-05-15T17:28:46.446Z,15.80
2023-05-15T17:31:13.054Z,15.80
2023-05-15T17:33:40.315Z,15.80
2023-05-15T17:36:07.036Z,15.70
2023-05-15T17:38:33.763Z,15.70
2023-05-15T17:41:00.491Z,15.70
2023-05-15T17:43:27.218Z,15.70
2023-05-15T17:45:53.880Z,15.70
2023-05-15T17:48:20.494Z,15.70
2023-05-15T17:50:47.140Z,15.70
2023-05-15T17:53:13.854Z,15.60
2023-05-15T17:55:40.486Z,15.70
2023-05-15T17:58:07.094Z,15.70
2023-05-15T18:00:33.706Z,15.70
2023-05-15T18:03:01.166Z,15.70
2023-05-15T18:05:28.182Z,15.60
2023-05-15T18:07:57.981Z,15.70
2023-05-15T18:10:24.689Z,15.60
2023-05-15T18:12:51.407Z,15.60
2023-05-15T18:15:18.085Z,15.50
2023-05-15T18:17:44.729Z,15.50
2023-05-15T18:20:12.022Z,15.40
2023-05-15T18:22:38.833Z,15.40
2023-05-15T18:25:05.807Z,15.30
2023-05-15T18:27:32.404Z,15.30
2023-05-15T18:29:59.175Z,15.30
2023-05-15T18:32:25.873Z,15.20
2023-05-15T18:34:52.527Z,15.10
2023-05-15T18:37:19.171Z,15.10
2023-05-15T18:39:45.849Z,15.00
2023-05-15T18:42:12.446Z,14.90
2023-05-15T18:44:39.847Z,14.80
2023-05-15T18:47:06.841Z,14.80
2023-05-15T18:49:33.932Z,14.70
2023-05-15T18:52:00.768Z,14.60
2023-05-15T18:54:27.580Z,14.60
2023-05-15T18:56:54.472Z,14.50
2023-05-15T18:59:21.126Z,14.50
2023-05-15T19:01:49.166Z,14.40
2023-05-15T19:04:15.825Z,14.30
2023-05-15T19:06:43.745Z,14.30
2023-05-15T19:09:10.430Z,14.30
2023-05-15T19:11:37.076Z,14.20
2023-05-15T19:14:03.690Z,14.20
2023-05-15T19:16:30.363Z,14.20
2023-05-15T19:18:57.094Z,14.10
2023-05-15T19:21:23.824Z,14.10
2023-05-15T19:23:51.072Z,14.10
2023-05-15T19:26:17.896Z,14.00
2023-05-15T19:28:44.534Z,14.00
2023-05-15T19:31:20.256Z,13.90
2023-05-15T19:33:54.354Z,13.90
2023-05-15T19:36:22.166Z,13.90
2023-05-15T19:38:48.794Z,13.80
2023-05-15T19:41:15.524Z,13.80
2023-05-15T19:43:46.217Z,13.70
2023-05-15T19:46:13.460Z,13.70
2023-05-15T19:48:40.218Z,13.70
2023-05-15T19:51:07.078Z,13.70
2023-05-15T19:53:33.851Z,13.70
2023-05-15T19:56:00.733Z,13.70
2023-05-15T19:58:27.373Z,13.70
2023-05-15T20:00:54.271Z,13.60
2023-05-15T20:03:21.631Z,13.50
2023-05-15T20:05:48.484Z,13.50
2023-05-15T20:08:16.972Z,13.50
2023-05-15T20:10:44.343Z,13.60
2023-05-15T20:13:11.388Z,13.60
2023-05-15T20:15:39.785Z,13.60
2023-05-15T20:18:07.282Z,13.60
2023-05-15T20:20:34.618Z,13.70
2023-05-15T20:23:01.279Z,13.70
2023-05-15T20:25:29.169Z,13.70
2023-05-15T20:27:57.092Z,13.70
2023-05-15T20:30:24.205Z,13.80
2023-05-15T20:32:51.108Z,13.80
2023-05-15T20:35:17.744Z,13.80
2023-05-15T20:37:45.340Z,13.80
2023-05-15T20:40:12.976Z,13.70
2023-05-15T20:42:39.855Z,13.60
2023-05-15T20:45:08.553Z,13.40
2023-05-15T20:47:35.868Z,13.20
2023-05-15T20:50:02.575Z,13.20
2023-05-15T20:52:29.236Z,13.10
2023-05-15T20:54:55.887Z,13.00
2023-05-15T20:57:22.531Z,13.00
2023-05-15T20:59:49.171Z,12.90
2023-05-15T21:02:16.035Z,12.90
2023-05-15T21:04:42.802Z,12.90
2023-05-15T21:07:09.443Z,12.80
2023-05-15T21:09:36.071Z,12.80
2023-05-15T21:12:03.695Z,12.70
2023-05-15T21:14:30.310Z,12.70
2023-05-15T21:16:57.033Z,12.70
2023-05-15T21:19:23.938Z,12.70
2023-05-15T21:21:50.790Z,12.70
2023-05-15T21:24:17.422Z,12.60
2023-05-15T21:26:44.068Z,12.60
2023-05-15T21:29:11.156Z,12.60
2023-05-15T21:31:37.851Z,12.70
2023-05-15T21:34:04.539Z,12.60
2023-05-15T21:36:31.327Z,12.60
2023-05-15T21:38:57.929Z,12.60
2023-05-15T21:41:25.911Z,12.60
2023-05-15T21:43:52.532Z,12.50
2023-05-15T21:46:19.320Z,12.50
2023-05-15T21:48:46.642Z,12.40
2023-05-15T21:51:13.322Z,12.40
2023-05-15T21:53:39.977Z,12.30
2023-05-15T21:56:07.287Z,12.30
2023-05-15T21:58:33.904Z,12.30
2023-05-15T22:01:00.557Z,12.20
2023-05-15T22:03:27.234Z,12.10
2023-05-15T22:05:53.927Z,12.10
2023-05-15T22:08:21.138Z,12.00
2023-05-15T22:10:50.530Z,12.00
2023-05-15T22:13:17.133Z,12.00
2023-05-15T22:15:43.799Z,12.00
2023-05-15T22:18:10.485Z,11.90
2023-05-15T22:20:37.108Z,11.90
2023-05-15T22:23:03.710Z,11.80
2023-05-15T22:25:30.908Z,11.70
2023-05-15T22:27:57.520Z,11.70
2023-05-15T22:30:24.170Z,11.60
2023-05-15T22:32:51.409Z,11.60
2023-05-15T22:35:18.594Z,11.60
2023-05-15T22:37:46.620Z,11.50
2023-05-15T22:40:13.380Z,11.50
2023-05-15T22:42:40.401Z,11.40
2023-05-15T22:45:07.749Z,11.40
2023-05-15T22:47:34.420Z,11.40
2023-05-15T22:50:01.236Z,11.30
2023-05-15T22:52:27.913Z,11.30
2023-05-15T22:54:54.528Z,11.30
2023-05-15T22:57:21.137Z,11.30
2023-05-15T22:59:47.761Z,11.20
2023-05-15T23:02:14.352Z,11.20
2023-05-15T23:04:41.412Z,11.20
2023-05-15T23:07:08.015Z,11.10
2023-05-15T23:09:34.646Z,11.10
2023-05-15T23:12:01.388Z,11.00
2023-05-15T23:14:28.021Z,11.00
2023-05-15T23:16:54.699Z,11.00
2023-05-15T23:19:21.462Z,10.90
2023-05-15T23:21:48.135Z,10.90
2023-05-15T23:24:14.747Z,10.80
2023-05-15T23:26:41.405Z,10.80
2023-05-15T23:29:08.325Z,10.80
2023-05-15T23:31:35.085Z,10.80
2023-05-15T23:34:01.739Z,10.80
2023-05-15T23:36:28.381Z,10.90
2023-05-15T23:38:54.992Z,10.90
2023-05-15T23:41:22.727Z,10.90
2023-05-15T23:43:52.221Z,11.00
2023-05-15T23:46:19.018Z,11.10
2023-05-15T23:48:45.824Z,11.10
2023-05-15T23:51:12.505Z,11.10
2023-05-15T23:53:39.100Z,11.10
2023-05-15T23:56:06.326Z,11.10
2023-05-15T23:58:33.364Z,11.10
